createdAt,value
2023-05-10T00:00:23.680Z,9.96
2023-05-10T00:03:08.815Z,9.94
2023-05-10T00:05:36.625Z,9.93
2023-05-10T00:08:04.290Z,9.91
2023-05-10T00:10:31.916Z,9.88
2023-05-10T00:12:59.568Z,9.83
2023-05-10T00:15:27.262Z,9.78
2023-05-10T00:17:54.941Z,9.73
2023-05-10T00:20:22.630Z,9.68
2023-05-10T00:22:50.271Z,9.63
2023-05-10T00:25:17.841Z,9.57
2023-05-10T00:27:45.576Z,9.54
2023-05-10T00:30:13.363Z,9.50
2023-05-10T00:32:41.342Z,9.48
2023-05-10T00:35:09.041Z,9.46
2023-05-10T00:37:36.685Z,9.45
2023-05-10T00:40:04.292Z,9.44
2023-05-10T00:42:31.968Z,9.42
2023-05-10T00:44:59.611Z,9.41
2023-05-10T00:47:27.247Z,9.38
2023-05-10T00:49:54.910Z,9.35
2023-05-10T00:52:24.445Z,9.33
2023-05-10T00:54:52.237Z,9.29
2023-05-10T00:57:19.866Z,9.26
2023-05-10T00:59:47.499Z,9.23
2023-05-10T01:02:15.507Z,9.21
2023-05-10T01:04:43.285Z,9.19
2023-05-10T01:07:11.762Z,9.17
2023-05-10T01:09:39.359Z,9.15
2023-05-10T01:12:08.439Z,9.15
2023-05-10T01:14:37.415Z,9.15
2023-05-10T01:17:05.068Z,9.16
2023-05-10T01:19:33.005Z,9.16
2023-05-10T01:22:00.660Z,9.15
2023-05-10T01:24:28.261Z,9.14
2023-05-10T01:26:55.848Z,9.14
2023-05-10T01:29:23.460Z,9.12
2023-05-10T01:31:51.168Z,9.10
2023-05-10T01:34:18.838Z,9.08
2023-05-10T01:36:46.456Z,9.04
2023-05-10T01:39:14.133Z,9.01
2023-05-10T01:41:42.298Z,8.97
2023-05-10T01:44:09.901Z,8.95
2023-05-10T01:46:40.789Z,8.93
2023-05-10T01:49:08.548Z,8.91
2023-05-10T01:51:36.205Z,8.88
2023-05-10T01:54:03.831Z,8.87
2023-05-10T01:56:31.919Z,8.85
2023-05-10T01:58:59.510Z,8.84
2023-05-10T02:01:27.452Z,8.84
2023-05-10T02:03:55.472Z,8.84
2023-05-10T02:06:23.110Z,8.84
2023-05-10T02:08:50.737Z,8.85
2023-05-10T02:11:18.534Z,8.86
2023-05-10T02:13:46.276Z,8.86
2023-05-10T02:16:13.929Z,8.86
2023-05-10T02:18:41.616Z,8.87
2023-05-10T02:21:09.233Z,8.87
2023-05-10T02:23:36.890Z,8.87
2023-05-10T02:26:04.606Z,8.87
2023-05-10T02:28:32.251Z,8.88
2023-05-10T02:30:59.871Z,8.88
2023-05-10T02:33:28.010Z,8.87
2023-05-10T02:35:55.668Z,8.85
2023-05-10T02:38:23.314Z,8.85
2023-05-10T02:40:50.946Z,8.85
2023-05-10T02:43:19.347Z,8.84
2023-05-10T02:45:46.986Z,8.83
2023-05-10T02:48:14.720Z,8.82
2023-05-10T02:50:42.480Z,8.82
2023-05-10T02:53:10.128Z,8.81
2023-05-10T02:55:37.778Z,8.80
2023-05-10T02:58:05.442Z,8.79
2023-05-10T03:00:33.457Z,8.78
2023-05-10T03:03:01.607Z,8.76
2023-05-10T03:05:29.298Z,8.73
2023-05-10T03:07:57.168Z,8.71
2023-05-10T03:10:24.776Z,8.67
2023-05-10T03:12:52.460Z,8.64
2023-05-10T03:15:20.203Z,8.61
2023-05-10T03:17:48.456Z,8.59
2023-05-10T03:20:16.383Z,8.59
2023-05-10T03:22:44.318Z,8.58
2023-05-10T03:25:12.102Z,8.57
2023-05-10T03:27:39.717Z,8.57
2023-05-10T03:30:07.468Z,8.57
2023-05-10T03:32:35.997Z,8.58
2023-05-10T03:35:04.044Z,8.58
2023-05-10T03:37:31.649Z,8.59
2023-05-10T03:39:59.286Z,8.60
2023-05-10T03:42:26.885Z,8.61
2023-05-10T03:44:54.526Z,8.60
2023-05-10T03:47:22.163Z,8.60
2023-05-10T03:49:49.769Z,8.60
2023-05-10T03:52:17.553Z,8.61
2023-05-10T03:54:45.175Z,8.62
2023-05-10T03:57:12.793Z,8.62
2023-05-10T03:59:40.470Z,8.62
2023-05-10T04:02:08.196Z,8.63
2023-05-10T04:04:35.988Z,8.65
2023-05-10T04:07:03.659Z,8.66
2023-05-10T04:09:31.314Z,8.69
2023-05-10T04:11:59.002Z,8.71
2023-05-10T04:14:26.631Z,8.73
2023-05-10T04:16:54.300Z,8.76
2023-05-10T04:19:22.407Z,8.80
2023-05-10T04:21:50.086Z,8.85
2023-05-10T04:24:17.774Z,8.89
2023-05-10T04:26:45.438Z,8.94
2023-05-10T04:29:13.050Z,8.98
2023-05-10T04:31:40.785Z,9.04
2023-05-10T04:34:08.410Z,9.08
2023-05-10T04:36:37.021Z,9.13
2023-05-10T04:39:04.659Z,9.18
2023-05-10T04:41:32.282Z,9.22
2023-05-10T04:43:59.896Z,9.26
2023-05-10T04:46:27.610Z,9.32
2023-05-10T04:48:55.390Z,9.37
2023-05-10T04:51:23.031Z,9.42
2023-05-10T04:54:01.714Z,9.48
2023-05-10T04:56:33.563Z,9.53
2023-05-10T04:59:01.187Z,9.58
2023-05-10T05:01:28.908Z,9.63
2023-05-10T05:03:56.819Z,9.68
2023-05-10T05:06:26.101Z,9.73
2023-05-10T05:08:53.816Z,9.77
2023-05-10T05:11:22.185Z,9.81
2023-05-10T05:13:49.793Z,9.87
2023-05-10T05:16:17.848Z,9.92
2023-05-10T05:18:45.602Z,9.97
2023-05-10T05:21:13.205Z,10.03
2023-05-10T05:23:40.818Z,10.09
2023-05-10T05:26:08.467Z,10.13
2023-05-10T05:28:38.414Z,10.19
2023-05-10T05:31:06.745Z,10.23
2023-05-10T05:33:34.554Z,10.29
2023-05-10T05:36:02.188Z,10.34
2023-05-10T05:38:29.866Z,10.40
2023-05-10T05:40:57.613Z,10.46
2023-05-10T05:43:25.909Z,10.52
2023-05-10T05:45:53.592Z,10.58
2023-05-10T05:48:21.243Z,10.63
2023-05-10T05:50:48.973Z,10.69
2023-05-10T05:53:16.985Z,10.74
2023-05-10T05:55:44.646Z,10.80
2023-05-10T05:58:12.373Z,10.86
2023-05-10T06:00:40.122Z,10.91
2023-05-10T06:03:08.186Z,10.96
2023-05-10T06:05:35.997Z,11.00
2023-05-10T06:08:03.612Z,11.06
2023-05-10T06:10:31.723Z,11.11
2023-05-10T06:12:59.544Z,11.16
2023-05-10T06:15:27.256Z,11.21
2023-05-10T06:17:54.918Z,11.27
2023-05-10T06:20:22.532Z,11.33
2023-05-10T06:22:50.152Z,11.39
2023-05-10T06:25:19.525Z,11.45
2023-05-10T06:27:51.751Z,11.51
2023-05-10T06:30:24.155Z,11.57
2023-05-10T06:32:51.930Z,11.64
2023-05-10T06:35:19.835Z,11.71
2023-05-10T06:37:47.967Z,11.78
2023-05-10T06:40:15.591Z,11.85
2023-05-10T06:42:43.287Z,11.91
2023-05-10T06:45:10.990Z,11.98
2023-05-10T06:47:39.443Z,12.05
2023-05-10T06:50:07.293Z,12.12
2023-05-10T06:52:34.915Z,12.19
2023-05-10T06:55:02.826Z,12.26
2023-05-10T06:57:32.080Z,12.33
2023-05-10T07:00:00.112Z,12.39
2023-05-10T07:02:28.123Z,12.45
2023-05-10T07:04:56.125Z,12.52
2023-05-10T07:07:23.739Z,12.59
2023-05-10T07:09:52.394Z,12.66
2023-05-10T07:12:20.086Z,12.73
2023-05-10T07:14:47.793Z,12.78
2023-05-10T07:17:15.562Z,12.83
2023-05-10T07:19:43.525Z,12.89
2023-05-10T07:22:11.190Z,12.96
2023-05-10T07:24:38.814Z,13.02
2023-05-10T07:27:06.694Z,13.08
2023-05-10T07:29:34.311Z,13.14
2023-05-10T07:32:02.380Z,13.21
2023-05-10T07:34:31.239Z,13.26
2023-05-10T07:36:58.904Z,13.32
2023-05-10T07:39:28.008Z,13.40
2023-05-10T07:41:55.970Z,13.46
2023-05-10T07:44:23.683Z,13.52
2023-05-10T07:46:51.458Z,13.59
2023-05-10T07:49:19.224Z,13.66
2023-05-10T07:51:46.913Z,13.71
2023-05-10T07:54:14.572Z,13.76
2023-05-10T07:56:46.575Z,13.83
2023-05-10T07:59:14.200Z,13.90
2023-05-10T08:01:41.814Z,13.95
2023-05-10T08:04:10.069Z,14.02
2023-05-10T08:06:37.718Z,14.08
2023-05-10T08:09:05.303Z,14.14
2023-05-10T08:11:34.395Z,14.20
2023-05-10T08:14:02.749Z,14.26
2023-05-10T08:16:30.436Z,14.33
2023-05-10T08:18:58.252Z,14.39
2023-05-10T08:21:25.983Z,14.45
2023-05-10T08:23:53.697Z,14.51
2023-05-10T08:26:22.701Z,14.57
2023-05-10T08:28:50.692Z,14.63
2023-05-10T08:31:19.224Z,14.71
2023-05-10T08:33:46.953Z,14.77
2023-05-10T08:36:20.757Z,14.82
2023-05-10T08:38:50.212Z,14.88
2023-05-10T08:41:18.014Z,14.94
2023-05-10T08:43:47.513Z,14.99
2023-05-10T08:46:15.195Z,15.05
2023-05-10T08:48:42.831Z,15.10
2023-05-10T08:51:10.590Z,15.16
2023-05-10T08:53:38.301Z,15.21
2023-05-10T08:56:05.945Z,15.25
2023-05-10T08:58:33.611Z,15.30
2023-05-10T09:01:01.637Z,15.33
2023-05-10T09:03:29.560Z,15.33
2023-05-10T09:05:57.248Z,15.33
2023-05-10T09:08:26.910Z,15.35
2023-05-10T09:10:54.780Z,15.39
2023-05-10T09:13:22.445Z,15.41
2023-05-10T09:15:50.066Z,15.45
2023-05-10T09:18:17.745Z,15.53
2023-05-10T09:20:46.144Z,15.62
2023-05-10T09:23:13.881Z,15.68
2023-05-10T09:25:41.590Z,15.75
2023-05-10T09:28:09.905Z,15.83
2023-05-10T09:30:37.808Z,15.92
2023-05-10T09:33:05.556Z,16.04
2023-05-10T09:35:33.517Z,16.17
2023-05-10T09:38:01.200Z,16.30
2023-05-10T09:40:28.910Z,16.44
2023-05-10T09:42:56.592Z,16.58
2023-05-10T09:45:24.236Z,16.72
2023-05-10T09:47:51.931Z,16.83
2023-05-10T09:50:19.728Z,16.88
2023-05-10T09:52:47.679Z,16.91
2023-05-10T09:55:15.553Z,16.90
2023-05-10T09:57:43.398Z,16.89
2023-05-10T10:00:11.361Z,16.86
2023-05-10T10:02:39.063Z,16.81
2023-05-10T10:05:06.870Z,16.74
2023-05-10T10:07:34.568Z,16.69
2023-05-10T10:10:02.194Z,16.68
2023-05-10T10:12:29.851Z,16.78
2023-05-10T10:14:57.510Z,16.89
2023-05-10T10:17:25.163Z,16.94
2023-05-10T10:19:52.832Z,16.98
2023-05-10T10:22:20.737Z,17.01
2023-05-10T10:24:48.354Z,17.02
2023-05-10T10:27:16.055Z,17.11
2023-05-10T10:29:43.654Z,17.22
2023-05-10T10:32:11.274Z,17.22
2023-05-10T10:34:38.899Z,17.17
2023-05-10T10:37:06.550Z,17.13
2023-05-10T10:39:34.363Z,17.12
2023-05-10T10:42:03.846Z,17.08
2023-05-10T10:44:32.042Z,17.05
2023-05-10T10:46:59.766Z,17.02
2023-05-10T10:49:27.932Z,17.00
2023-05-10T10:51:55.665Z,16.97
2023-05-10T10:54:23.321Z,16.93
2023-05-10T10:56:51.877Z,16.92
2023-05-10T10:59:19.506Z,16.90
2023-05-10T11:01:47.437Z,16.86
2023-05-10T11:04:15.173Z,16.85
2023-05-10T11:06:43.657Z,16.91
2023-05-10T11:09:11.293Z,16.95
2023-05-10T11:11:38.912Z,16.98
2023-05-10T11:14:06.619Z,16.98
2023-05-10T11:16:34.343Z,16.95
2023-05-10T11:19:03.338Z,16.93
2023-05-10T11:21:31.575Z,16.91
2023-05-10T11:23:59.522Z,16.94
2023-05-10T11:26:27.366Z,17.01
2023-05-10T11:28:59.687Z,17.04
2023-05-10T11:31:28.159Z,17.07
2023-05-10T11:33:56.233Z,17.12
2023-05-10T11:36:23.912Z,17.16
2023-05-10T11:38:51.532Z,17.19
2023-05-10T11:41:19.204Z,17.25
2023-05-10T11:43:46.817Z,17.29
2023-05-10T11:46:14.478Z,17.30
2023-05-10T11:48:42.132Z,17.34
2023-05-10T11:51:09.824Z,17.38
2023-05-10T11:53:37.485Z,17.42
2023-05-10T11:56:05.616Z,17.44
2023-05-10T11:58:33.470Z,17.47
2023-05-10T12:01:01.117Z,17.52
2023-05-10T12:03:29.225Z,17.59
2023-05-10T12:05:57.094Z,17.61
2023-05-10T12:08:24.791Z,17.67
2023-05-10T12:10:52.468Z,17.77
2023-05-10T12:13:20.132Z,17.89
2023-05-10T12:15:47.792Z,18.05
2023-05-10T12:18:15.498Z,18.20
2023-05-10T12:20:43.652Z,18.30
2023-05-10T12:23:11.644Z,18.32
2023-05-10T12:25:40.078Z,18.29
2023-05-10T12:28:08.107Z,18.22
2023-05-10T12:30:35.705Z,18.21
2023-05-10T12:33:03.725Z,18.26
2023-05-10T12:35:31.616Z,18.38
2023-05-10T12:37:59.196Z,18.49
2023-05-10T12:40:26.790Z,18.53
2023-05-10T12:42:54.472Z,18.54
2023-05-10T12:45:22.110Z,18.59
2023-05-10T12:47:49.781Z,18.58
2023-05-10T12:50:17.593Z,18.51
2023-05-10T12:52:45.425Z,18.50
2023-05-10T12:55:13.029Z,18.59
2023-05-10T12:57:40.602Z,18.71
2023-05-10T13:00:08.184Z,18.78
2023-05-10T13:02:36.104Z,18.82
2023-05-10T13:05:03.888Z,18.85
2023-05-10T13:07:31.542Z,18.92
2023-05-10T13:09:59.105Z,19.03
2023-05-10T13:12:26.681Z,19.17
2023-05-10T13:14:54.324Z,19.30
2023-05-10T13:17:21.968Z,19.41
2023-05-10T13:19:49.531Z,19.53
2023-05-10T13:22:22.951Z,19.63
2023-05-10T13:24:56.540Z,19.71
2023-05-10T13:27:24.095Z,19.80
2023-05-10T13:29:51.648Z,19.83
2023-05-10T13:32:19.188Z,19.83
2023-05-10T13:34:46.790Z,19.80
2023-05-10T13:37:14.356Z,19.82
2023-05-10T13:39:41.894Z,19.87
2023-05-10T13:42:09.461Z,19.90
2023-05-10T13:44:37.178Z,19.92
2023-05-10T13:47:04.772Z,19.96
2023-05-10T13:49:32.363Z,20.00
2023-05-10T13:52:00.048Z,20.03
2023-05-10T13:54:30.551Z,20.06
2023-05-10T13:56:58.159Z,20.08
2023-05-10T13:59:26.502Z,20.09
2023-05-10T14:01:54.134Z,20.11
2023-05-10T14:04:21.744Z,20.13
2023-05-10T14:06:50.208Z,20.12
2023-05-10T14:09:18.420Z,20.10
2023-05-10T14:11:46.691Z,20.08
2023-05-10T14:14:14.427Z,20.07
2023-05-10T14:16:42.072Z,20.03
2023-05-10T14:19:09.801Z,19.97
2023-05-10T14:21:37.494Z,19.93
2023-05-10T14:24:05.646Z,19.89
2023-05-10T14:26:33.207Z,19.84
2023-05-10T14:29:00.798Z,19.80
2023-05-10T14:31:28.413Z,19.79
2023-05-10T14:33:56.037Z,19.80
2023-05-10T14:36:23.665Z,19.81
2023-05-10T14:38:51.915Z,19.81
2023-05-10T14:41:19.498Z,19.81
2023-05-10T14:43:47.059Z,19.79
2023-05-10T14:46:14.681Z,19.78
2023-05-10T14:48:42.280Z,19.76
2023-05-10T14:51:09.975Z,19.72
2023-05-10T14:53:37.541Z,19.66
2023-05-10T14:56:05.187Z,19.60
2023-05-10T14:58:35.177Z,19.57
2023-05-10T15:01:02.852Z,19.54
2023-05-10T15:03:33.224Z,19.51
2023-05-10T15:06:04.798Z,19.50
2023-05-10T15:08:38.048Z,19.51
2023-05-10T15:11:12.873Z,19.54
2023-05-10T15:13:46.713Z,19.56
2023-05-10T15:16:19.102Z,19.58
2023-05-10T15:18:47.911Z,19.60
2023-05-10T15:21:20.013Z,19.62
2023-05-10T15:23:49.232Z,19.63
2023-05-10T15:26:18.005Z,19.66
2023-05-10T15:28:51.794Z,19.67
2023-05-10T15:31:20.509Z,19.69
2023-05-10T15:33:48.432Z,19.71
2023-05-10T15:36:16.346Z,19.72
2023-05-10T15:38:43.926Z,19.72
2023-05-10T15:41:11.460Z,19.74
2023-05-10T15:43:39.012Z,19.79
2023-05-10T15:46:07.096Z,19.87
2023-05-10T15:48:34.728Z,20.00
2023-05-10T15:51:02.328Z,20.10
2023-05-10T15:53:30.074Z,20.18
2023-05-10T15:55:57.695Z,20.25
2023-05-10T15:58:25.355Z,20.47
2023-05-10T16:00:53.018Z,20.80
2023-05-10T16:03:20.786Z,20.96
2023-05-10T16:05:48.734Z,21.00
2023-05-10T16:08:16.361Z,20.98
2023-05-10T16:10:44.002Z,20.93
2023-05-10T16:13:11.957Z,20.92
2023-05-10T16:15:39.588Z,20.86
2023-05-10T16:18:07.251Z,20.75
2023-05-10T16:20:34.859Z,20.61
2023-05-10T16:23:02.496Z,20.49
2023-05-10T16:25:30.160Z,20.34
2023-05-10T16:27:57.858Z,20.18
2023-05-10T16:30:27.423Z,20.02
2023-05-10T16:32:55.431Z,19.86
2023-05-10T16:35:24.080Z,19.71
2023-05-10T16:37:51.728Z,19.58
2023-05-10T16:40:19.466Z,19.46
2023-05-10T16:42:47.232Z,19.33
2023-05-10T16:45:16.590Z,19.21
2023-05-10T16:47:44.624Z,19.09
2023-05-10T16:50:12.514Z,19.02
2023-05-10T16:52:40.257Z,18.92
2023-05-10T16:55:07.926Z,18.81
2023-05-10T16:57:35.676Z,18.69
2023-05-10T17:00:03.419Z,18.57
2023-05-10T17:02:31.211Z,18.44
2023-05-10T17:04:58.969Z,18.32
2023-05-10T17:07:28.893Z,18.19
2023-05-10T17:09:56.892Z,18.07
2023-05-10T17:12:24.520Z,17.97
2023-05-10T17:14:52.130Z,17.85
2023-05-10T17:17:19.728Z,17.74
2023-05-10T17:19:47.343Z,17.63
2023-05-10T17:22:14.943Z,17.52
2023-05-10T17:24:42.567Z,17.43
2023-05-10T17:27:10.231Z,17.33
2023-05-10T17:29:39.317Z,17.26
2023-05-10T17:32:09.266Z,17.17
2023-05-10T17:34:37.222Z,17.08
2023-05-10T17:37:05.196Z,16.99
2023-05-10T17:39:32.805Z,16.93
2023-05-10T17:42:01.014Z,16.86
2023-05-10T17:44:28.620Z,16.78
2023-05-10T17:46:56.237Z,16.72
2023-05-10T17:49:23.873Z,16.64
2023-05-10T17:51:51.496Z,16.57
2023-05-10T17:54:19.217Z,16.50
2023-05-10T17:56:46.830Z,16.43
2023-05-10T17:59:14.434Z,16.37
2023-05-10T18:01:42.097Z,16.30
2023-05-10T18:04:09.995Z,16.23
2023-05-10T18:06:37.708Z,16.15
2023-05-10T18:09:07.375Z,16.09
2023-05-10T18:11:35.051Z,16.01
2023-05-10T18:14:02.661Z,15.94
2023-05-10T18:16:30.396Z,15.88
2023-05-10T18:18:58.176Z,15.83
2023-05-10T18:21:26.151Z,15.77
2023-05-10T18:23:53.899Z,15.72
2023-05-10T18:26:21.580Z,15.67
2023-05-10T18:28:49.320Z,15.61
2023-05-10T18:31:16.996Z,15.55
2023-05-10T18:33:44.650Z,15.47
2023-05-10T18:36:12.252Z,15.42
2023-05-10T18:38:40.372Z,15.37
2023-05-10T18:41:08.883Z,15.31
2023-05-10T18:43:36.668Z,15.25
2023-05-10T18:46:04.334Z,15.19
2023-05-10T18:48:31.994Z,15.14
2023-05-10T18:50:59.589Z,15.09
2023-05-10T18:53:27.218Z,15.04
2023-05-10T18:55:54.826Z,15.00
2023-05-10T18:58:22.418Z,14.96
2023-05-10T19:00:50.028Z,14.91
2023-05-10T19:03:17.626Z,14.86
2023-05-10T19:05:47.213Z,14.81
2023-05-10T19:08:14.822Z,14.76
2023-05-10T19:10:42.439Z,14.72
2023-05-10T19:13:10.080Z,14.67
2023-05-10T19:15:37.759Z,14.61
2023-05-10T19:18:05.530Z,14.56
2023-05-10T19:20:33.211Z,14.52
2023-05-10T19:23:09.845Z,14.47
2023-05-10T19:25:39.487Z,14.43
2023-05-10T19:28:09.072Z,14.38
2023-05-10T19:30:37.361Z,14.34
2023-05-10T19:33:06.506Z,14.30
2023-05-10T19:35:34.142Z,14.26
2023-05-10T19:38:01.797Z,14.22
2023-05-10T19:40:29.528Z,14.18
2023-05-10T19:42:57.227Z,14.14
2023-05-10T19:45:24.934Z,14.11
2023-05-10T19:47:52.864Z,14.07
2023-05-10T19:50:20.743Z,14.03
2023-05-10T19:52:50.657Z,14.00
2023-05-10T19:55:18.649Z,13.96
2023-05-10T19:57:46.580Z,13.94
2023-05-10T20:00:14.221Z,13.90
2023-05-10T20:02:41.874Z,13.88
2023-05-10T20:05:09.568Z,13.84
2023-05-10T20:07:37.462Z,13.81
2023-05-10T20:10:05.125Z,13.78
2023-05-10T20:12:33.032Z,13.75
2023-05-10T20:15:00.743Z,13.71
2023-05-10T20:17:28.424Z,13.67
2023-05-10T20:19:56.075Z,13.64
2023-05-10T20:22:23.670Z,13.60
2023-05-10T20:24:53.201Z,13.55
2023-05-10T20:27:22.018Z,13.53
2023-05-10T20:29:49.661Z,13.51
2023-05-10T20:32:17.252Z,13.48
2023-05-10T20:34:45.162Z,13.44
2023-05-10T20:37:13.402Z,13.39
2023-05-10T20:39:41.152Z,13.36
2023-05-10T20:42:09.276Z,13.34
2023-05-10T20:44:36.932Z,13.30
2023-05-10T20:47:04.539Z,13.28
2023-05-10T20:49:32.186Z,13.25
2023-05-10T20:51:59.806Z,13.23
2023-05-10T20:54:27.827Z,13.21
2023-05-10T20:56:55.426Z,13.18
2023-05-10T20:59:23.086Z,13.14
2023-05-10T21:01:50.917Z,13.11
2023-05-10T21:04:18.675Z,13.07
2023-05-10T21:06:46.318Z,13.04
2023-05-10T21:09:13.909Z,13.02
2023-05-10T21:11:41.680Z,13.01
2023-05-10T21:14:09.892Z,12.98
2023-05-10T21:16:37.569Z,12.96
2023-05-10T21:19:07.347Z,12.94
2023-05-10T21:21:35.482Z,12.92
2023-05-10T21:24:03.184Z,12.88
2023-05-10T21:26:31.493Z,12.83
2023-05-10T21:28:59.586Z,12.81
2023-05-10T21:31:27.289Z,12.78
2023-05-10T21:33:54.957Z,12.75
2023-05-10T21:36:22.960Z,12.71
2023-05-10T21:38:50.948Z,12.68
2023-05-10T21:41:18.746Z,12.64
2023-05-10T21:43:46.378Z,12.62
2023-05-10T21:46:14.479Z,12.60
2023-05-10T21:48:42.135Z,12.58
2023-05-10T21:51:09.776Z,12.55
2023-05-10T21:53:39.146Z,12.51
2023-05-10T21:56:07.452Z,12.49
2023-05-10T21:58:35.072Z,12.46
2023-05-10T22:01:03.499Z,12.41
2023-05-10T22:03:31.230Z,12.38
2023-05-10T22:05:58.867Z,12.33
2023-05-10T22:08:26.857Z,12.30
2023-05-10T22:10:54.610Z,12.27
2023-05-10T22:13:22.237Z,12.24
2023-05-10T22:15:49.979Z,12.21
2023-05-10T22:18:17.668Z,12.17
2023-05-10T22:20:45.565Z,12.15
2023-05-10T22:23:13.199Z,12.12
2023-05-10T22:25:40.869Z,12.09
2023-05-10T22:28:09.320Z,12.07
2023-05-10T22:30:37.100Z,12.06
2023-05-10T22:33:04.802Z,12.06
2023-05-10T22:35:32.465Z,12.03
2023-05-10T22:38:00.128Z,12.01
2023-05-10T22:40:28.002Z,11.97
2023-05-10T22:42:55.622Z,11.93
2023-05-10T22:45:23.307Z,11.89
2023-05-10T22:47:51.027Z,11.84
2023-05-10T22:50:19.259Z,11.82
2023-05-10T22:52:47.147Z,11.79
2023-05-10T22:55:14.772Z,11.76
2023-05-10T22:57:42.414Z,11.74
2023-05-10T23:00:10.061Z,11.72
2023-05-10T23:02:37.701Z,11.70
2023-05-10T23:05:05.932Z,11.67
2023-05-10T23:07:33.605Z,11.66
2023-05-10T23:10:01.277Z,11.65
2023-05-10T23:12:31.375Z,11.65
2023-05-10T23:14:59.760Z,11.64
2023-05-10T23:17:27.421Z,11.63
2023-05-10T23:19:55.107Z,11.64
2023-05-10T23:22:22.781Z,11.64
2023-05-10T23:24:50.370Z,11.63
2023-05-10T23:27:18.045Z,11.63
2023-05-10T23:29:45.699Z,11.63
2023-05-10T23:32:13.369Z,11.62
2023-05-10T23:34:41.038Z,11.62
2023-05-10T23:37:08.681Z,11.62
2023-05-10T23:39:36.576Z,11.61
2023-05-10T23:42:04.348Z,11.58
2023-05-10T23:44:31.953Z,11.55
2023-05-10T23:46:59.711Z,11.50
2023-05-10T23:49:27.453Z,11.44
2023-05-10T23:51:55.171Z,11.40
2023-05-10T23:54:22.839Z,11.36
2023-05-10T23:56:51.652Z,11.33
2023-05-10T23:59:19.301Z,11.30
